createdAt,value
2022-11-18T00:00:57.037Z,2.05
2022-11-18T00:03:37.081Z,2.50
2022-11-18T00:06:30.061Z,2.47
2022-11-18T00:09:10.118Z,2.20
2022-11-18T00:12:15.001Z,2.60
2022-11-18T00:14:55.052Z,2.38
2022-11-18T00:17:42.000Z,2.20
2022-11-18T00:20:29.037Z,2.60
2022-11-18T00:23:09.490Z,2.28
2022-11-18T00:25:56.031Z,2.30
2022-11-18T00:28:43.079Z,2.45
2022-11-18T00:31:22.980Z,2.63
2022-11-18T00:34:10.057Z,2.63
2022-11-18T00:36:50.986Z,2.30
2022-11-18T00:42:37.000Z,2.25
2022-11-18T00:45:18.812Z,2.60
2022-11-18T00:50:52.130Z,2.30
2022-11-18T00:53:34.028Z,2.10
2022-11-18T00:56:27.991Z,2.00
2022-11-18T00:59:08.527Z,2.03
2022-11-18T01:01:55.063Z,2.53
2022-11-18T01:04:42.050Z,2.40
2022-11-18T01:07:29.072Z,2.38
2022-11-18T01:10:15.979Z,2.60
2022-11-18T01:13:14.638Z,2.45
2022-11-18T01:16:04.017Z,2.20
2022-11-18T01:18:51.043Z,2.60
2022-11-18T01:21:37.994Z,2.50
2022-11-18T01:24:25.013Z,2.30
2022-11-18T01:27:12.016Z,2.30
2022-11-18T01:29:59.010Z,1.85
2022-11-18T01:32:39.530Z,2.40
2022-11-18T01:35:26.066Z,2.40
2022-11-18T01:38:15.010Z,2.13
2022-11-18T01:41:02.051Z,2.10
2022-11-18T01:44:05.072Z,2.45
2022-11-18T01:46:45.014Z,2.20
2022-11-18T01:49:32.040Z,2.05
2022-11-18T01:52:13.022Z,2.45
2022-11-18T01:57:42.193Z,2.42
2022-11-18T02:00:29.019Z,2.10
2022-11-18T02:03:17.083Z,2.25
2022-11-18T02:05:59.750Z,2.20
2022-11-18T02:08:47.034Z,2.45
2022-11-18T02:12:04.116Z,2.30
2022-11-18T02:14:48.108Z,2.03
2022-11-18T02:17:53.025Z,2.20
2022-11-18T02:21:01.025Z,2.20
2022-11-18T02:24:20.557Z,2.40
2022-11-18T02:27:32.059Z,2.63
2022-11-18T02:30:22.072Z,2.38
2022-11-18T02:33:30.040Z,2.38
2022-11-18T02:36:20.638Z,2.67
2022-11-18T02:39:17.068Z,2.50
2022-11-18T02:42:01.119Z,2.13
2022-11-18T02:44:53.018Z,2.20
2022-11-18T02:47:49.999Z,2.38
2022-11-18T02:50:39.028Z,2.22
2022-11-18T02:53:23.078Z,2.53
2022-11-18T02:56:11.037Z,2.10
2022-11-18T02:58:51.121Z,2.58
2022-11-18T03:01:40.111Z,2.35
2022-11-18T03:04:22.052Z,2.85
2022-11-18T03:07:50.010Z,2.60
2022-11-18T03:10:37.109Z,2.53
2022-11-18T03:13:33.013Z,2.30
2022-11-18T03:16:27.045Z,2.70
2022-11-18T03:19:18.834Z,2.33
2022-11-18T03:22:19.998Z,2.47
2022-11-18T03:25:12.021Z,2.40
2022-11-18T03:28:08.062Z,2.45
2022-11-18T03:31:16.035Z,2.05
2022-11-18T03:34:13.021Z,2.25
2022-11-18T03:37:09.181Z,2.50
2022-11-18T03:39:56.005Z,2.47
2022-11-18T03:42:50.005Z,2.40
2022-11-18T03:45:54.033Z,2.67
2022-11-18T03:48:48.024Z,2.30
2022-11-18T03:51:46.035Z,2.70
2022-11-18T03:54:39.109Z,2.80
2022-11-18T03:57:27.096Z,2.63
2022-11-18T04:00:20.010Z,2.30
2022-11-18T04:03:00.131Z,2.40
2022-11-18T04:05:50.054Z,2.47
2022-11-18T04:08:36.063Z,2.40
2022-11-18T04:11:48.006Z,2.53
2022-11-18T04:14:35.033Z,2.20
2022-11-18T04:17:33.035Z,2.60
2022-11-18T04:20:26.122Z,2.20
2022-11-18T04:23:06.070Z,2.50
2022-11-18T04:25:53.057Z,2.38
2022-11-18T04:28:33.069Z,2.75
2022-11-18T04:31:20.082Z,2.22
2022-11-18T04:34:00.010Z,2.47
2022-11-18T04:36:40.525Z,2.50
2022-11-18T04:39:27.026Z,2.40
2022-11-18T04:42:14.067Z,2.05
2022-11-18T04:45:01.014Z,2.40
2022-11-18T04:48:00.308Z,2.22
2022-11-18T04:50:50.024Z,2.90
2022-11-18T04:53:30.104Z,2.22
2022-11-18T04:56:17.014Z,2.40
2022-11-18T04:58:57.078Z,2.97
2022-11-18T05:01:44.059Z,2.75
2022-11-18T05:04:30.191Z,2.30
2022-11-18T05:07:22.046Z,2.45
2022-11-18T05:10:02.114Z,2.42
2022-11-18T05:13:01.323Z,2.20
2022-11-18T05:15:41.150Z,2.30
2022-11-18T05:18:28.018Z,2.80
2022-11-18T05:21:12.075Z,2.50
2022-11-18T05:23:59.003Z,2.47
2022-11-18T05:26:39.160Z,2.70
2022-11-18T05:29:27.029Z,2.53
2022-11-18T05:32:07.086Z,2.22
2022-11-18T05:34:54.001Z,2.30
2022-11-18T05:37:34.103Z,2.22
2022-11-18T05:40:21.025Z,2.72
2022-11-18T05:43:13.359Z,2.60
2022-11-18T05:46:00.035Z,2.50
2022-11-18T05:48:54.020Z,2.35
2022-11-18T05:51:35.323Z,2.53
2022-11-18T05:57:11.026Z,2.33
2022-11-18T05:59:51.281Z,2.55
2022-11-18T06:02:38.052Z,2.70
2022-11-18T06:05:33.053Z,2.75
2022-11-18T06:08:24.021Z,2.60
2022-11-18T06:11:04.108Z,2.40
2022-11-18T06:14:01.046Z,2.60
2022-11-18T06:16:43.069Z,2.65
2022-11-18T06:19:31.014Z,2.70
2022-11-18T06:22:12.111Z,2.63
2022-11-18T06:27:39.055Z,2.33
2022-11-18T06:30:26.017Z,2.40
2022-11-18T06:33:06.138Z,2.63
2022-11-18T06:36:01.022Z,2.38
2022-11-18T06:38:41.250Z,2.45
2022-11-18T06:41:28.017Z,2.50
2022-11-18T06:44:08.053Z,2.72
2022-11-18T06:47:04.001Z,2.70
2022-11-18T06:49:44.155Z,2.90
2022-11-18T06:52:31.168Z,2.85
2022-11-18T06:55:11.097Z,2.75
2022-11-18T06:57:58.049Z,3.35
2022-11-18T07:00:38.137Z,2.70
2022-11-18T07:03:25.036Z,2.70
2022-11-18T07:06:13.036Z,2.45
2022-11-18T07:09:01.041Z,2.42
2022-11-18T07:11:41.460Z,2.45
2022-11-18T07:14:28.359Z,2.45
2022-11-18T07:17:08.092Z,2.60
2022-11-18T07:19:54.988Z,2.78
2022-11-18T07:22:42.029Z,2.70
2022-11-18T07:28:09.014Z,2.45
2022-11-18T07:30:56.095Z,2.40
2022-11-18T07:33:37.169Z,2.55
2022-11-18T07:39:06.177Z,2.28
2022-11-18T07:44:33.106Z,2.50
2022-11-18T07:47:27.042Z,2.60
2022-11-18T07:50:21.013Z,2.53
2022-11-18T07:53:08.164Z,2.58
2022-11-18T07:55:48.010Z,2.60
2022-11-18T07:58:35.106Z,2.35
2022-11-18T08:01:27.102Z,2.53
2022-11-18T08:04:19.085Z,2.40
2022-11-18T08:06:59.039Z,1.90
2022-11-18T08:09:39.521Z,2.55
2022-11-18T08:12:26.032Z,2.20
2022-11-18T08:15:14.021Z,1.95
2022-11-18T08:18:01.034Z,1.95
2022-11-18T08:20:48.048Z,2.00
2022-11-18T08:26:21.021Z,2.00
2022-11-18T08:29:01.182Z,2.00
2022-11-18T08:31:48.007Z,2.08
2022-11-18T08:34:35.017Z,2.25
2022-11-18T08:40:09.045Z,2.00
2022-11-18T08:45:36.069Z,1.83
2022-11-18T08:48:23.020Z,2.20
2022-11-18T08:53:51.049Z,2.10
2022-11-18T08:59:19.445Z,2.10
2022-11-18T09:01:59.100Z,1.80
2022-11-18T09:04:46.021Z,1.83
2022-11-18T09:10:14.025Z,2.00
2022-11-18T09:15:42.040Z,2.17
2022-11-18T09:18:22.149Z,2.00
2022-11-18T09:21:15.014Z,1.98
2022-11-18T09:23:55.143Z,2.00
2022-11-18T09:26:42.047Z,1.83
2022-11-18T09:29:32.009Z,1.83
2022-11-18T09:32:19.033Z,2.83
2022-11-18T09:37:46.022Z,1.80
2022-11-18T09:43:27.001Z,1.90
2022-11-18T09:46:24.589Z,2.00
2022-11-18T09:49:25.009Z,2.10
2022-11-18T09:52:25.145Z,1.85
2022-11-18T09:55:20.035Z,2.08
2022-11-18T09:58:13.053Z,1.88
2022-11-18T10:03:40.028Z,1.80
2022-11-18T10:06:30.184Z,1.90
2022-11-18T10:09:44.067Z,1.90
2022-11-18T10:12:39.486Z,1.77
2022-11-18T10:15:53.105Z,1.83
2022-11-18T10:22:24.430Z,1.80
2022-11-18T10:25:22.130Z,2.63
2022-11-18T10:28:03.037Z,1.80
2022-11-18T10:30:50.077Z,1.83
2022-11-18T10:33:33.077Z,2.38
2022-11-18T10:36:23.019Z,2.53
2022-11-18T10:39:19.165Z,2.10
2022-11-18T10:42:14.014Z,1.88
2022-11-18T10:45:01.020Z,1.90
2022-11-18T10:47:55.026Z,2.28
2022-11-18T10:50:47.276Z,2.08
2022-11-18T10:53:42.022Z,2.15
2022-11-18T10:56:22.548Z,2.22
2022-11-18T10:59:09.026Z,2.05
2022-11-18T11:02:16.123Z,2.05
2022-11-18T11:04:57.148Z,2.10
2022-11-18T11:07:44.134Z,2.50
2022-11-18T11:10:29.157Z,2.15
2022-11-18T11:13:23.013Z,2.20
2022-11-18T11:16:15.034Z,2.35
2022-11-18T11:19:02.286Z,2.55
2022-11-18T11:21:49.023Z,2.10
2022-11-18T11:24:36.044Z,2.17
2022-11-18T11:30:43.683Z,2.28
2022-11-18T11:33:33.148Z,2.20
2022-11-18T11:36:25.017Z,2.25
2022-11-18T11:39:38.028Z,2.05
2022-11-18T11:42:54.084Z,2.20
2022-11-18T11:46:08.004Z,2.30
2022-11-18T11:49:11.019Z,2.10
2022-11-18T11:52:03.052Z,2.55
2022-11-18T11:55:13.007Z,1.95
2022-11-18T11:58:26.011Z,2.10
2022-11-18T12:01:26.023Z,2.20
2022-11-18T12:04:30.079Z,2.08
2022-11-18T12:07:20.079Z,2.30
2022-11-18T12:10:35.072Z,2.20
2022-11-18T12:13:28.031Z,2.40
2022-11-18T12:16:47.043Z,2.30
2022-11-18T12:19:35.999Z,2.65
2022-11-18T12:22:23.029Z,2.30
2022-11-18T12:25:03.080Z,2.72
2022-11-18T12:27:58.644Z,2.67
2022-11-18T12:30:45.032Z,3.05
2022-11-18T12:33:32.063Z,2.70
2022-11-18T12:38:59.127Z,3.20
2022-11-18T12:44:57.011Z,2.60
2022-11-18T12:47:56.045Z,2.47
2022-11-18T12:51:03.017Z,3.00
2022-11-18T12:53:57.021Z,3.03
2022-11-18T12:56:44.020Z,3.17
2022-11-18T12:59:47.021Z,3.00
2022-11-18T13:02:29.430Z,3.40
2022-11-18T13:05:24.011Z,3.55
2022-11-18T13:08:15.675Z,3.95
2022-11-18T13:11:24.053Z,3.75
2022-11-18T13:14:31.045Z,3.97
2022-11-18T13:17:48.514Z,4.50
2022-11-18T13:20:40.019Z,3.85
2022-11-18T13:23:38.916Z,4.30
2022-11-18T13:26:40.051Z,3.88
2022-11-18T13:29:53.688Z,4.18
2022-11-18T13:32:41.073Z,4.38
2022-11-18T13:38:03.776Z,4.70
2022-11-18T13:41:11.058Z,4.50
2022-11-18T13:43:54.088Z,4.57
2022-11-18T13:46:41.108Z,4.47
2022-11-18T13:49:37.076Z,4.60
2022-11-18T13:52:34.088Z,4.90
2022-11-18T13:55:31.139Z,4.78
2022-11-18T13:58:49.665Z,5.20
2022-11-18T14:01:35.168Z,4.63
2022-11-18T14:04:34.012Z,4.80
2022-11-18T14:07:29.273Z,5.30
2022-11-18T14:10:22.065Z,4.50
2022-11-18T14:13:22.535Z,4.72
2022-11-18T14:16:15.056Z,4.25
2022-11-18T14:19:02.042Z,4.30
2022-11-18T14:24:34.012Z,3.97
2022-11-18T14:27:48.057Z,3.95
2022-11-18T14:30:46.059Z,4.00
2022-11-18T14:33:28.701Z,4.80
2022-11-18T14:36:22.041Z,4.82
2022-11-18T14:39:26.057Z,3.95
2022-11-18T14:42:17.036Z,4.25
2022-11-18T14:44:58.158Z,3.92
2022-11-18T14:47:47.036Z,4.53
2022-11-18T14:50:34.543Z,4.30
2022-11-18T14:56:06.084Z,4.10
2022-11-18T14:58:46.040Z,3.92
2022-11-18T15:01:30.587Z,4.00
2022-11-18T15:04:18.418Z,4.47
2022-11-18T15:09:45.060Z,4.30
2022-11-18T15:15:13.066Z,3.92
2022-11-18T15:20:41.021Z,3.58
2022-11-18T15:23:26.994Z,3.55
2022-11-18T15:26:25.040Z,3.95
2022-11-18T15:29:05.578Z,4.32
2022-11-18T15:31:52.076Z,4.18
2022-11-18T15:37:19.053Z,4.50
2022-11-18T15:40:06.192Z,3.88
2022-11-18T15:42:51.701Z,4.15
2022-11-18T15:45:39.157Z,4.22
2022-11-18T15:51:11.460Z,4.65
2022-11-18T15:53:52.034Z,4.28
2022-11-18T15:56:41.524Z,4.35
2022-11-18T15:59:24.079Z,4.10
2022-11-18T16:02:11.061Z,4.57
2022-11-18T16:04:51.084Z,5.30
2022-11-18T16:07:38.069Z,4.57
2022-11-18T16:10:36.959Z,4.80
2022-11-18T16:13:28.033Z,4.93
2022-11-18T16:16:15.068Z,4.80
2022-11-18T16:19:04.039Z,5.18
2022-11-18T16:21:48.931Z,4.68
2022-11-18T16:24:32.034Z,5.25
2022-11-18T16:27:20.794Z,5.00
2022-11-18T16:30:11.033Z,5.53
2022-11-18T16:32:51.850Z,5.55
2022-11-18T16:35:38.089Z,5.32
2022-11-18T16:41:26.055Z,5.90
2022-11-18T16:44:19.064Z,5.60
2022-11-18T16:47:01.080Z,5.60
2022-11-18T16:49:49.035Z,5.63
2022-11-18T16:52:29.142Z,5.30
2022-11-18T16:55:16.130Z,5.43
2022-11-18T16:57:56.089Z,5.53
2022-11-18T17:01:16.648Z,6.38
2022-11-18T17:03:50.064Z,6.13
2022-11-18T17:06:38.196Z,6.32
2022-11-18T17:09:21.320Z,6.63
2022-11-18T17:12:15.075Z,6.75
2022-11-18T17:14:55.531Z,6.47
2022-11-18T17:17:42.044Z,7.03
2022-11-18T17:20:22.504Z,6.80
2022-11-18T17:23:09.045Z,7.32
2022-11-18T17:25:56.139Z,7.00
2022-11-18T17:28:38.105Z,7.13
2022-11-18T17:31:27.056Z,7.35
2022-11-18T17:34:07.153Z,7.78
2022-11-18T17:36:54.051Z,7.43
2022-11-18T17:39:34.149Z,7.40
2022-11-18T17:42:21.032Z,7.60
2022-11-18T17:45:08.038Z,8.63
2022-11-18T17:47:56.621Z,7.32
2022-11-18T17:50:43.053Z,7.47
2022-11-18T17:53:24.120Z,7.57
2022-11-18T17:56:14.048Z,7.55
2022-11-18T17:59:02.031Z,6.90
2022-11-18T18:01:51.810Z,7.38
2022-11-18T18:04:34.065Z,7.20
2022-11-18T18:07:21.108Z,7.15
2022-11-18T18:10:08.035Z,7.25
2022-11-18T18:13:06.874Z,7.40
2022-11-18T18:15:53.057Z,6.75
2022-11-18T18:18:33.170Z,7.47
2022-11-18T18:21:20.049Z,8.45
2022-11-18T18:24:07.036Z,7.70
2022-11-18T18:27:01.077Z,6.93
2022-11-18T18:29:48.305Z,6.95
2022-11-18T18:32:28.061Z,7.40
2022-11-18T18:35:09.660Z,7.00
2022-11-18T18:40:43.508Z,7.20
2022-11-18T18:43:30.033Z,6.43
2022-11-18T18:46:35.054Z,7.35
2022-11-18T18:49:31.104Z,7.05
2022-11-18T18:52:18.089Z,6.65
2022-11-18T18:54:58.167Z,7.30
2022-11-18T18:57:45.039Z,6.95
2022-11-18T19:00:32.087Z,7.38
2022-11-18T19:03:19.087Z,7.18
2022-11-18T19:06:47.871Z,6.85
2022-11-18T19:09:18.039Z,7.53
2022-11-18T19:12:24.089Z,7.82
2022-11-18T19:15:04.225Z,8.13
2022-11-18T19:17:51.130Z,8.35
2022-11-18T19:20:41.065Z,8.05
2022-11-18T19:23:21.505Z,8.35
2022-11-18T19:26:15.063Z,8.80
2022-11-18T19:28:56.069Z,8.38
2022-11-18T19:34:30.060Z,8.43
2022-11-18T19:37:10.169Z,8.45
2022-11-18T19:39:57.099Z,8.90
2022-11-18T19:42:39.332Z,9.32
2022-11-18T19:45:26.052Z,9.18
2022-11-18T19:48:06.153Z,9.27
2022-11-18T19:51:00.097Z,9.18
2022-11-18T19:53:48.110Z,9.40
2022-11-18T19:56:29.076Z,9.52
2022-11-18T20:02:04.055Z,9.05
2022-11-18T20:05:11.073Z,9.75
2022-11-18T20:07:58.048Z,9.45
2022-11-18T20:10:45.042Z,9.90
2022-11-18T20:13:33.033Z,9.65
2022-11-18T20:16:22.552Z,9.63
2022-11-18T20:19:12.074Z,10.20
2022-11-18T20:21:52.656Z,9.27
2022-11-18T20:24:40.071Z,9.95
2022-11-18T20:27:27.338Z,9.93
2022-11-18T20:30:07.053Z,9.70
2022-11-18T20:32:54.051Z,9.80
2022-11-18T20:35:34.165Z,9.30
2022-11-18T20:38:21.048Z,10.18
2022-11-18T20:41:07.105Z,9.43
2022-11-18T20:43:55.100Z,9.23
2022-11-18T20:46:42.062Z,9.43
2022-11-18T20:49:36.103Z,9.38
2022-11-18T20:52:16.871Z,10.73
2022-11-18T20:55:05.864Z,10.20
2022-11-18T20:57:46.875Z,9.48
2022-11-18T21:00:33.233Z,10.02
2022-11-18T21:03:21.289Z,10.20
2022-11-18T21:06:01.052Z,9.80
2022-11-18T21:08:42.669Z,9.63
2022-11-18T21:14:24.106Z,9.07
2022-11-18T21:17:13.054Z,8.50
2022-11-18T21:20:00.070Z,8.60
2022-11-18T21:22:47.066Z,8.15
2022-11-18T21:25:34.090Z,8.88
2022-11-18T21:28:14.224Z,8.50
2022-11-18T21:31:01.049Z,8.73
2022-11-18T21:33:41.161Z,8.13
2022-11-18T21:36:29.112Z,8.23
2022-11-18T21:39:10.190Z,8.20
2022-11-18T21:41:57.635Z,8.30
2022-11-18T21:44:37.113Z,8.27
2022-11-18T21:47:24.052Z,8.48
2022-11-18T21:50:11.212Z,8.05
2022-11-18T21:52:51.041Z,8.10
2022-11-18T21:55:31.531Z,8.20
2022-11-18T21:58:18.058Z,8.10
2022-11-18T22:01:15.297Z,8.45
2022-11-18T22:03:58.076Z,8.65
2022-11-18T22:06:45.152Z,9.25
2022-11-18T22:09:25.247Z,9.55
2022-11-18T22:12:13.076Z,8.63
2022-11-18T22:14:53.112Z,8.95
2022-11-18T22:17:40.070Z,9.73
2022-11-18T22:20:20.158Z,10.18
2022-11-18T22:23:08.042Z,9.85
2022-11-18T22:25:48.176Z,9.80
2022-11-18T22:28:35.048Z,9.48
2022-11-18T22:31:24.221Z,10.25
2022-11-18T22:34:11.078Z,10.10
2022-11-18T22:36:58.065Z,10.48
2022-11-18T22:39:38.593Z,10.32
2022-11-18T22:42:43.056Z,10.88
2022-11-18T22:45:23.579Z,10.57
2022-11-18T22:48:10.085Z,10.63
2022-11-18T22:51:19.042Z,11.00
2022-11-18T22:57:20.196Z,11.10
2022-11-18T23:00:00.057Z,10.45
2022-11-18T23:02:47.072Z,10.65
2022-11-18T23:05:34.032Z,10.45
2022-11-18T23:08:21.158Z,10.07
2022-11-18T23:11:37.833Z,10.95
2022-11-18T23:14:24.053Z,10.30
2022-11-18T23:17:11.055Z,10.35
2022-11-18T23:19:51.563Z,10.65
2022-11-18T23:22:38.089Z,10.57
2022-11-18T23:25:25.188Z,11.07
2022-11-18T23:28:05.061Z,9.73
2022-11-18T23:30:52.228Z,10.13
2022-11-18T23:33:32.051Z,10.27
2022-11-18T23:36:21.120Z,10.23
2022-11-18T23:39:01.065Z,10.32
2022-11-18T23:41:41.556Z,10.77
2022-11-18T23:44:48.089Z,9.55
2022-11-18T23:47:28.585Z,10.40
2022-11-18T23:50:15.076Z,10.02
2022-11-18T23:53:09.043Z,9.30
2022-11-18T23:55:50.078Z,9.30
2022-11-18T23:58:37.068Z,8.88
